Terminal Aerodrome Forecast
Issued by NWS

Home | Current Version | Previous Version | Text Only | Print | Product List | Glossary On
Versions: 1 2 3 4 5 6 7 8 9 10 11 12 13 14 15 16 17 18 19
000
FTUS46 KPDT 301124
TAFYKM
TAF
KYKM 301124Z 3012/3112 19012G20KT P6SM -SHRA OVC080
     FM301500 19011KT P6SM VCSH SCT080 BKN120
     FM301900 25018G25KT P6SM SCT080
     FM310300 26009KT P6SM SCT060 SCT200
     FM310700 26005KT P6SM BKN100 BKN200=

USA.gov is the U.S. government's official web portal to all federal, state and local government web resources and services.